地図

経路データ

SID SEASON NUMBER BASIN SUBBASIN NAME ISO_TIME NATURE LAT LON WMO_WIND WMO_PRES WMO_AGENCY TRACK_TYPE DIST2LAND LANDFALL IFLAG USA_AGENCY USA_ATCF_ID USA_LAT USA_LON USA_RECORD USA_STATUS USA_WIND USA_PRES USA_SSHS USA_R34_NE USA_R34_SE USA_R34_SW USA_R34_NW USA_R50_NE USA_R50_SE USA_R50_SW USA_R50_NW USA_R64_NE USA_R64_SE USA_R64_SW USA_R64_NW USA_POCI USA_ROCI USA_RMW USA_EYE TOKYO_LAT TOKYO_LON TOKYO_GRADE TOKYO_WIND TOKYO_PRES TOKYO_R50_DIR TOKYO_R50_LONG TOKYO_R50_SHORT TOKYO_R30_DIR TOKYO_R30_LONG TOKYO_R30_SHORT TOKYO_LAND CMA_LAT CMA_LON CMA_CAT CMA_WIND CMA_PRES HKO_LAT HKO_LON HKO_CAT HKO_WIND HKO_PRES NEWDELHI_LAT NEWDELHI_LON NEWDELHI_GRADE NEWDELHI_WIND NEWDELHI_PRES NEWDELHI_CI NEWDELHI_DP NEWDELHI_POCI REUNION_LAT REUNION_LON REUNION_TYPE REUNION_WIND REUNION_PRES REUNION_TNUM REUNION_CI REUNION_RMW REUNION_R34_NE REUNION_R34_SE REUNION_R34_SW REUNION_R34_NW REUNION_R50_NE REUNION_R50_SE REUNION_R50_SW REUNION_R50_NW REUNION_R64_NE REUNION_R64_SE REUNION_R64_SW REUNION_R64_NW BOM_LAT BOM_LON BOM_TYPE BOM_WIND BOM_PRES BOM_TNUM BOM_CI BOM_RMW BOM_R34_NE BOM_R34_SE BOM_R34_SW BOM_R34_NW BOM_R50_NE BOM_R50_SE BOM_R50_SW BOM_R50_NW BOM_R64_NE BOM_R64_SE BOM_R64_SW BOM_R64_NW BOM_ROCI BOM_POCI BOM_EYE BOM_POS_METHOD BOM_PRES_METHOD NADI_LAT NADI_LON NADI_CAT NADI_WIND NADI_PRES WELLINGTON_LAT WELLINGTON_LON WELLINGTON_WIND WELLINGTON_PRES DS824_LAT DS824_LON DS824_STAGE DS824_WIND DS824_PRES TD9636_LAT TD9636_LON TD9636_STAGE TD9636_WIND TD9636_PRES TD9635_LAT TD9635_LON TD9635_WIND TD9635_PRES TD9635_ROCI NEUMANN_LAT NEUMANN_LON NEUMANN_CLASS NEUMANN_WIND NEUMANN_PRES MLC_LAT MLC_LON MLC_CLASS MLC_WIND MLC_PRES USA_GUST BOM_GUST BOM_GUST_PER REUNION_GUST REUNION_GUST_PER USA_SEAHGT USA_SEARAD_NE USA_SEARAD_SE USA_SEARAD_SW USA_SEARAD_NW STORM_SPEED STORM_DIR
1924303N16128 1924 48 WP MM NOT_NAMED 1924-10-28 22:00:00 NR 15.8000 127.900 main 432 413 __________O___ -1 15.8000 127.900 2 6 269
1924303N16128 1924 48 WP MM NOT_NAMED 1924-10-29 00:00:00 NR 15.7960 127.688 main 413 386 __________P___ -1 15.7960 127.688 2 6 269
1924303N16128 1924 48 WP MM NOT_NAMED 1924-10-29 03:00:00 NR 15.7914 127.375 main 386 359 __________P___ -1 15.7914 127.375 2 6 269
1924303N16128 1924 48 WP MM NOT_NAMED 1924-10-29 06:00:00 NR 15.7905 127.073 main 359 334 __________P___ -1 15.7905 127.073 2 6 270
1924303N16128 1924 48 WP MM NOT_NAMED 1924-10-29 09:00:00 NR 15.7962 126.789 main 334 326 __________P___ -1 15.7962 126.789 2 5 272
1924303N16128 1924 48 WP MM NOT_NAMED 1924-10-29 10:00:00 NR 15.8000 126.700 main 326 310 __________O___ -1 15.8000 126.700 2 5 273
1924303N16128 1924 48 WP MM NOT_NAMED 1924-10-29 12:00:00 NR 15.8112 126.530 main 310 294 __________P___ -1 15.8112 126.530 2 5 276
1924303N16128 1924 48 WP MM NOT_NAMED 1924-10-29 15:00:00 NR 15.8406 126.287 main 294 280 __________P___ -1 15.8406 126.287 2 5 280
1924303N16128 1924 48 WP MM NOT_NAMED 1924-10-29 18:00:00 NR 15.8905 126.046 main 280 266 __________P___ -1 15.8905 126.046 2 5 285
1924303N16128 1924 48 WP MM NOT_NAMED 1924-10-29 21:00:00 NR 15.9673 125.791 main 275 269 __________P___ -1 15.9673 125.791 2 5 288
1924303N16128 1924 48 WP MM NOT_NAMED 1924-10-29 22:00:00 NR 16.0000 125.700 main 269 258 __________O___ -1 16.0000 125.700 2 6 287
1924303N16128 1924 48 WP MM NOT_NAMED 1924-10-30 00:00:00 NR 16.0563 125.490 main 268 254 __________P___ -1 16.0563 125.490 2 7 288
1924303N16128 1924 48 WP MM NOT_NAMED 1924-10-30 03:00:00 NR 16.1654 125.156 main 264 254 __________P___ -1 16.1654 125.156 2 7 292
1924303N16128 1924 48 WP MM NOT_NAMED 1924-10-30 06:00:00 NR 16.3153 124.818 main 254 217 __________P___ -1 16.3153 124.818 2 7 299
1924303N16128 1924 48 WP MM NOT_NAMED 1924-10-30 09:00:00 NR 16.5183 124.499 main 217 205 __________P___ -1 16.5183 124.499 2 7 305
1924303N16128 1924 48 WP MM NOT_NAMED 1924-10-30 10:00:00 NR 16.6000 124.400 main 205 181 __________O___ -1 16.6000 124.400 2 8 312
1924303N16128 1924 48 WP MM NOT_NAMED 1924-10-30 12:00:00 NR 16.7824 124.191 main 181 148 __________P___ -1 16.7824 124.191 2 8 317
1924303N16128 1924 48 WP MM NOT_NAMED 1924-10-30 15:00:00 NR 17.1064 123.902 main 149 131 __________P___ -1 17.1064 123.902 2 9 324
1924303N16128 1924 48 WP MM NOT_NAMED 1924-10-30 18:00:00 NR 17.4741 123.669 main 139 129 __________P___ -1 17.4741 123.669 2 8 335
1924303N16128 1924 48 WP MM NOT_NAMED 1924-10-30 21:00:00 NR 17.8668 123.524 main 134 131 __________P___ -1 17.8668 123.524 2 8 343
1924303N16128 1924 48 WP MM NOT_NAMED 1924-10-30 22:00:00 NR 18.0000 123.500 main 131 126 __________O___ -1 18.0000 123.500 2 8 354
1924303N16128 1924 48 WP MM NOT_NAMED 1924-10-31 00:00:00 NR 18.2524 123.485 main 126 126 __________P___ -1 18.2524 123.485 2 8 4
1924303N16128 1924 48 WP MM NOT_NAMED 1924-10-31 03:00:00 NR 18.6438 123.550 main 138 141 __________P___ -1 18.6438 123.550 2 8 15
1924303N16128 1924 48 WP MM NOT_NAMED 1924-10-31 06:00:00 NR 19.0476 123.702 main 162 166 __________P___ -1 19.0476 123.702 2 9 23
1924303N16128 1924 48 WP MM NOT_NAMED 1924-10-31 09:00:00 NR 19.4608 123.918 main 208 208 __________P___ -1 19.4608 123.918 2 9 27
1924303N16128 1924 48 WP MM NOT_NAMED 1924-10-31 10:00:00 NR 19.6000 124.000 main 223 223 __________O___ -1 19.6000 124.000 2 10 30
1924303N16128 1924 48 WP MM NOT_NAMED 1924-10-31 12:00:00 NR 19.8802 124.176 main 260 260 __________P___ -1 19.8802 124.176 2 10 32
1924303N16128 1924 48 WP MM NOT_NAMED 1924-10-31 15:00:00 NR 20.3038 124.463 main 313 313 __________P___ -1 20.3038 124.463 2 10 33
1924303N16128 1924 48 WP MM NOT_NAMED 1924-10-31 18:00:00 NR 20.7300 124.771 main 367 375 __________P___ -1 20.7300 124.771 2 10 35
1924303N16128 1924 48 WP MM NOT_NAMED 1924-10-31 21:00:00 NR 21.1575 125.092 main 428 428 __________P___ -1 21.1575 125.092 2 10 35
1924303N16128 1924 48 WP MM NOT_NAMED 1924-10-31 22:00:00 NR 21.3000 125.200 main 439 __________O___ -1 21.3000 125.200 7 11 36

デジタル台風データ・検索

IBTrACS Databaseについて

本データベースは、米国NOAAが公開する1842年以降の世界の熱帯低気圧のベストトラックデータアーカイブInternational Best Track Archive for Climate Stewardship (IBTrACS)を、ウェブで閲覧しやすい形式に変換したものです。

最終更新日:2021-12-06